Time;durP1;ratioP1;P1;durP2;ratioP2;P2;SDS_P1;SDS_P2;PMS_P1;PMS_P2;Temp;Humidity;BMP_temperature;BMP_pressure;BME280_temperature;BME280_humidity;BME280_pressure;Samples;Min_cycle;Max_cycle;Signal;HPM_P1;HPM_P2
2022/04/20 00:00:37;;;;;;;3.78;3.05;;;;;;;8.44;81.78;101196.16;4988795;28;20058;-81
2022/04/20 00:03:03;;;;;;;4.88;3.10;;;;;;;8.38;82.35;101196.50;4980237;28;20073;-81
2022/04/20 00:05:33;;;;;;;4.50;3.15;;;;;;;8.34;82.31;101204.00;4977928;28;20046;-81
2022/04/20 00:08:02;;;;;;;5.18;3.17;;;;;;;8.39;81.96;101198.25;4962981;28;20135;-81
2022/04/20 00:10:28;;;;;;;4.05;3.03;;;;;;;8.42;81.00;101196.22;4981329;28;20030;-81
2022/04/20 00:12:54;;;;;;;6.18;3.05;;;;;;;8.37;81.70;101197.50;4963038;28;20490;-81
2022/04/20 00:15:20;;;;;;;4.65;3.30;;;;;;;8.38;81.40;101191.94;4964198;28;20557;-81
2022/04/20 00:17:45;;;;;;;5.55;3.30;;;;;;;8.40;80.25;101172.75;4957963;28;20031;-81
2022/04/20 00:20:11;;;;;;;15.13;4.45;;;;;;;8.36;80.48;101179.34;4967977;28;20039;-81
2022/04/20 00:22:37;;;;;;;6.38;3.22;;;;;;;8.46;79.97;101188.72;4980839;28;20450;-81
2022/04/20 00:25:03;;;;;;;7.18;3.60;;;;;;;8.50;79.46;101183.97;4984917;28;20031;-81
2022/04/20 00:27:33;;;;;;;8.05;3.47;;;;;;;8.38;80.33;101188.31;4992979;28;20364;-80
2022/04/20 00:29:59;;;;;;;8.93;3.25;;;;;;;8.32;80.47;101194.19;4994422;28;20036;-80
2022/04/20 00:32:24;;;;;;;5.05;3.47;;;;;;;8.37;80.26;101197.50;4971649;28;20038;-80
2022/04/20 00:34:50;;;;;;;6.72;3.40;;;;;;;8.34;80.18;101192.22;4982632;28;20046;-80
2022/04/20 00:37:15;;;;;;;5.55;3.22;;;;;;;8.31;80.46;101200.59;4953188;28;20043;-80
2022/04/20 00:39:41;;;;;;;4.85;3.33;;;;;;;8.31;80.42;101203.34;4951808;28;20088;-80
2022/04/20 00:42:07;;;;;;;8.45;3.60;;;;;;;8.28;80.74;101204.44;4964227;28;20028;-80
2022/04/20 00:44:32;;;;;;;6.55;3.60;;;;;;;8.22;80.66;101208.41;4968442;28;20066;-80
2022/04/20 00:46:59;;;;;;;6.50;3.50;;;;;;;8.29;79.78;101212.47;4965118;28;20131;-80
2022/04/20 00:49:25;;;;;;;6.80;3.35;;;;;;;8.25;80.05;101208.22;4981250;28;20038;-81
2022/04/20 00:51:59;;;;;;;10.18;3.72;;;;;;;8.24;80.80;101208.31;4989203;28;20482;-80
2022/04/20 00:54:25;;;;;;;4.95;3.67;;;;;;;8.20;80.87;101202.19;4996140;28;20086;-81
2022/04/20 00:56:51;;;;;;;6.30;3.33;;;;;;;8.14;81.34;101213.47;4999522;28;20038;-80
2022/04/20 00:59:22;;;;;;;4.35;3.40;;;;;;;8.10;80.79;101217.38;4969592;28;20058;-80
2022/04/20 01:01:48;;;;;;;5.90;3.60;;;;;;;8.02;80.93;101208.81;4960862;28;20054;-81
2022/04/20 01:04:14;;;;;;;5.85;3.35;;;;;;;8.05;82.09;101214.94;4945772;29;20042;-81
2022/04/20 01:06:39;;;;;;;7.03;3.17;;;;;;;8.10;80.98;101223.72;4976496;28;20039;-81
2022/04/20 01:09:05;;;;;;;9.52;2.83;;;;;;;8.08;80.83;101214.75;4969599;28;20098;-81
2022/04/20 01:11:31;;;;;;;5.82;3.70;;;;;;;7.90;81.80;101203.16;4942129;28;20173;-80
2022/04/20 01:13:57;;;;;;;4.75;3.53;;;;;;;7.66;81.91;101178.28;4969939;28;20603;-80
2022/04/20 01:16:23;;;;;;;8.13;3.90;;;;;;;7.98;81.20;101220.88;4973088;28;20042;-80
2022/04/20 01:18:53;;;;;;;6.47;3.30;;;;;;;7.91;81.26;101213.06;4968049;28;20039;-80
2022/04/20 01:21:19;;;;;;;5.68;3.33;;;;;;;7.95;81.12;101221.06;4961318;28;20047;-81
2022/04/20 01:23:45;;;;;;;6.03;3.40;;;;;;;7.88;81.07;101223.28;4974363;28;20039;-81
2022/04/20 01:26:11;;;;;;;6.80;3.17;;;;;;;7.78;81.33;101212.06;4971335;28;20035;-81
2022/04/20 01:28:41;;;;;;;6.30;3.63;;;;;;;7.84;81.33;101219.88;4970959;28;20419;-81
2022/04/20 01:31:07;;;;;;;9.35;3.33;;;;;;;7.78;81.26;101217.53;4976896;28;20039;-81
2022/04/20 01:33:33;;;;;;;8.30;3.33;;;;;;;7.66;81.92;101218.28;4975148;28;20043;-81
2022/04/20 01:35:59;;;;;;;10.35;3.30;;;;;;;7.65;81.36;101211.06;4982156;28;20050;-81
2022/04/20 01:38:25;;;;;;;4.88;3.60;;;;;;;7.63;81.84;101215.75;4970244;28;20403;-81
2022/04/20 01:40:50;;;;;;;5.38;3.33;;;;;;;7.62;82.54;101220.31;4966158;28;20063;-81
2022/04/20 01:43:16;;;;;;;5.05;3.38;;;;;;;7.49;82.93;101211.13;4953779;28;20054;-80
2022/04/20 01:45:41;;;;;;;6.03;3.38;;;;;;;7.62;81.98;101225.75;4947452;29;20038;-80
2022/04/20 01:48:07;;;;;;;4.22;3.20;;;;;;;7.60;81.80;101211.34;4956076;28;20085;-81
2022/04/20 01:50:33;;;;;;;16.25;3.35;;;;;;;7.61;81.41;101210.41;4980103;28;20045;-79
2022/04/20 01:52:59;;;;;;;8.18;3.35;;;;;;;7.55;81.27;101211.63;4968647;28;20067;-80
2022/04/20 01:55:25;;;;;;;8.43;3.20;;;;;;;7.49;82.36;101220.19;4979247;28;20035;-80
2022/04/20 01:57:50;;;;;;;7.45;3.88;;;;;;;7.47;81.43;101215.78;4974102;28;20051;-80
2022/04/20 02:00:18;;;;;;;7.95;3.40;;;;;;;7.48;81.61;101223.88;4984330;28;20036;-81
2022/04/20 02:02:43;;;;;;;4.82;3.58;;;;;;;7.38;83.03;101221.78;4983534;28;20097;-80
2022/04/20 02:05:11;;;;;;;13.43;3.83;;;;;;;7.30;82.86;101214.97;4949535;28;20842;-81
2022/04/20 02:07:38;;;;;;;5.40;3.65;;;;;;;7.41;81.97;101219.78;4958483;29;20054;-81
2022/04/20 02:10:06;;;;;;;8.40;3.30;;;;;;;7.42;82.74;101223.38;4979842;28;20082;-80
2022/04/20 02:12:32;;;;;;;8.30;3.22;;;;;;;7.31;83.29;101218.56;4972812;28;20035;-80
2022/04/20 02:14:57;;;;;;;6.18;3.78;;;;;;;7.30;83.15;101220.41;4975475;28;20034;-80
2022/04/20 02:17:23;;;;;;;7.05;3.80;;;;;;;7.32;83.10;101221.19;4954707;28;20039;-80
2022/04/20 02:19:49;;;;;;;12.77;3.70;;;;;;;7.21;83.62;101215.50;4969059;29;20066;-80
2022/04/20 02:22:15;;;;;;;6.93;3.63;;;;;;;7.08;84.31;101215.34;4985317;28;20043;-81
2022/04/20 02:24:41;;;;;;;11.68;3.97;;;;;;;7.05;83.64;101210.09;4981300;28;20042;-79
2022/04/20 02:27:09;;;;;;;12.82;3.70;;;;;;;7.08;83.72;101215.34;4951099;29;20045;-81
2022/04/20 02:29:38;;;;;;;5.60;3.20;;;;;;;7.01;84.77;101230.28;4973906;28;20031;-83
2022/04/20 02:32:06;;;;;;;5.40;3.65;;;;;;;6.95;84.95;101226.09;4982793;28;20046;-82
2022/04/20 02:34:32;;;;;;;7.93;3.55;;;;;;;7.01;85.62;101230.28;4961966;29;20062;-83
2022/04/20 02:36:59;;;;;;;6.55;3.40;;;;;;;6.95;84.99;101226.09;4968054;28;20039;-81
2022/04/20 02:39:25;;;;;;;8.77;4.05;;;;;;;6.87;85.09;101209.34;4925804;28;20074;-81
2022/04/20 02:41:50;;;;;;;7.05;3.45;;;;;;;6.91;85.68;101226.34;4985791;28;20046;-81
2022/04/20 02:44:16;;;;;;;10.10;3.88;;;;;;;7.01;86.09;101232.16;4969197;28;20129;-82
2022/04/20 02:46:42;;;;;;;8.90;3.50;;;;;;;6.98;85.79;101228.66;4972695;28;20121;-81
2022/04/20 02:49:08;;;;;;;6.20;3.40;;;;;;;7.02;85.47;101236.59;4964632;29;20030;-81
2022/04/20 02:51:33;;;;;;;8.25;3.95;;;;;;;6.78;86.01;101215.28;4980596;28;20031;-81
2022/04/20 02:53:59;;;;;;;4.78;3.53;;;;;;;6.87;86.07;101235.66;4964913;29;20103;-82
2022/04/20 02:56:24;;;;;;;6.72;3.72;;;;;;;6.97;85.96;101235.03;4979247;28;20055;-82
2022/04/20 02:58:50;;;;;;;8.15;3.05;;;;;;;6.97;84.33;101232.31;4955578;28;20050;-80
2022/04/20 03:01:15;;;;;;;6.07;3.83;;;;;;;6.90;85.49;101238.19;4971218;28;20047;-80
2022/04/20 03:03:41;;;;;;;6.32;3.03;;;;;;;6.81;84.60;101228.72;4945959;28;20063;-79
2022/04/20 03:06:06;;;;;;;6.25;3.63;;;;;;;6.86;85.50;101234.78;4964798;29;20098;-80
2022/04/20 03:08:32;;;;;;;8.90;4.53;;;;;;;6.78;85.51;101237.94;4965516;28;20057;-81
2022/04/20 03:10:57;;;;;;;5.28;3.53;;;;;;;6.77;84.53;101238.03;4965508;29;20107;-81
2022/04/20 03:13:22;;;;;;;5.95;3.70;;;;;;;6.73;84.91;101231.00;4960557;28;20036;-81
2022/04/20 03:15:48;;;;;;;11.27;4.43;;;;;;;6.74;85.03;101241.81;4974159;28;20099;-81
2022/04/20 03:18:13;;;;;;;13.27;3.58;;;;;;;6.71;85.12;101247.44;4974658;28;20043;-80
2022/04/20 03:20:39;;;;;;;9.38;3.70;;;;;;;6.60;85.91;101239.00;4968181;28;20059;-80
2022/04/20 03:23:06;;;;;;;6.65;3.58;;;;;;;6.60;86.10;101241.72;4967514;28;20031;-81
2022/04/20 03:25:31;;;;;;;5.90;3.20;;;;;;;6.47;87.37;101249.69;4980864;28;20035;-82
2022/04/20 03:27:57;;;;;;;8.23;3.88;;;;;;;6.42;87.15;101240.91;4943760;29;20113;-81
2022/04/20 03:30:22;;;;;;;12.30;3.90;;;;;;;6.31;88.34;101249.63;4959363;28;20035;-81
2022/04/20 03:32:48;;;;;;;7.28;3.65;;;;;;;6.35;88.34;101245.81;4966440;28;20577;-81
2022/04/20 03:35:15;;;;;;;8.93;3.67;;;;;;;6.24;88.61;101238.22;4952084;28;20045;-82
2022/04/20 03:37:40;;;;;;;4.85;3.08;;;;;;;6.24;88.66;101246.38;4959081;28;20529;-80
2022/04/20 03:40:08;;;;;;;9.48;3.63;;;;;;;6.31;87.89;101252.34;4981604;28;20051;-81
2022/04/20 03:42:34;;;;;;;9.10;3.65;;;;;;;6.36;87.70;101250.28;4972776;28;20038;-81
2022/04/20 03:45:00;;;;;;;7.93;3.63;;;;;;;6.30;88.30;101247.03;4966907;28;20070;-81
2022/04/20 03:47:26;;;;;;;9.57;3.70;;;;;;;6.29;88.25;101258.84;4962149;28;20162;-81
2022/04/20 03:49:52;;;;;;;10.32;4.30;;;;;;;6.18;89.25;101259.44;4977494;28;20042;-81
2022/04/20 03:52:17;;;;;;;19.20;3.42;;;;;;;5.98;89.06;101236.91;4970976;28;20061;-80
2022/04/20 03:54:43;;;;;;;10.20;3.88;;;;;;;6.20;88.77;101263.84;4963998;28;20070;-82
2022/04/20 03:57:10;;;;;;;11.98;4.40;;;;;;;6.22;88.82;101259.19;4950385;29;20038;-81
2022/04/20 03:59:36;;;;;;;5.25;3.38;;;;;;;6.23;88.80;101254.63;4964171;28;20045;-81
2022/04/20 04:02:03;;;;;;;7.13;3.58;;;;;;;6.27;88.71;101258.06;4981515;28;20039;-80
2022/04/20 04:04:29;;;;;;;4.95;3.22;;;;;;;6.25;89.00;101260.88;4953428;28;20039;-80
2022/04/20 04:06:54;;;;;;;7.63;3.45;;;;;;;6.21;89.34;101260.13;4967232;28;20062;-79
2022/04/20 04:09:20;;;;;;;10.48;3.42;;;;;;;6.30;88.26;101268.78;4977900;28;20047;-80
2022/04/20 04:11:45;;;;;;;7.10;3.50;;;;;;;6.30;89.44;101274.22;4970628;28;20072;-81
2022/04/20 04:14:11;;;;;;;5.28;3.63;;;;;;;6.29;88.62;101258.84;4951766;28;20041;-79
2022/04/20 04:16:37;;;;;;;7.10;4.65;;;;;;;6.24;90.46;101276.28;4979906;28;20043;-79
2022/04/20 04:19:04;;;;;;;12.30;4.25;;;;;;;6.28;89.74;101279.75;4965842;28;20031;-79
2022/04/20 04:21:31;;;;;;;12.13;4.10;;;;;;;6.26;90.08;101273.47;4966281;28;20031;-80
2022/04/20 04:23:57;;;;;;;9.73;3.42;;;;;;;6.23;90.32;101268.22;4977429;28;20087;-79
2022/04/20 04:26:23;;;;;;;7.55;3.83;;;;;;;6.23;89.73;101273.66;4979826;28;20043;-80
2022/04/20 04:28:48;;;;;;;5.53;3.13;;;;;;;6.21;89.59;101272.88;4979571;28;20046;-81
2022/04/20 04:31:14;;;;;;;5.97;3.35;;;;;;;6.20;89.69;101279.28;4999382;28;20019;-80
2022/04/20 04:33:40;;;;;;;8.27;3.80;;;;;;;6.10;89.95;101268.03;4964026;29;20031;-80
2022/04/20 04:36:07;;;;;;;7.93;4.00;;;;;;;6.11;90.78;101267.03;4956879;28;20085;-82
2022/04/20 04:38:33;;;;;;;7.32;3.78;;;;;;;6.17;89.95;101279.44;4960063;28;20046;-83
2022/04/20 04:40:59;;;;;;;5.30;3.83;;;;;;;6.17;90.25;101283.03;4962413;29;20031;-83
2022/04/20 04:43:25;;;;;;;14.98;4.18;;;;;;;6.14;91.19;101276.88;4950931;28;20939;-81
2022/04/20 04:48:38;;;;;;;8.90;3.25;;;;;;;6.11;90.36;101288.78;4968051;28;20413;-81
2022/04/20 04:51:10;;;;;;;7.97;3.67;;;;;;;6.25;89.61;101290.78;4980512;28;20050;-81
2022/04/20 04:53:36;;;;;;;6.85;3.88;;;;;;;6.18;89.77;101284.81;4985808;28;20023;-81
2022/04/20 04:56:01;;;;;;;12.82;4.20;;;;;;;6.06;90.79;101283.59;4974334;28;20046;-81
2022/04/20 04:58:27;;;;;;;9.23;3.58;;;;;;;6.24;89.85;101297.16;4948500;28;20031;-80
2022/04/20 05:00:53;;;;;;;6.60;3.38;;;;;;;6.36;89.08;101299.25;4961686;28;20054;-82
2022/04/20 05:03:19;;;;;;;10.18;4.28;;;;;;;6.33;89.38;101307.56;4960356;28;20727;-80
2022/04/20 05:05:46;;;;;;;8.18;3.70;;;;;;;6.30;89.22;101285.97;4964641;28;20051;-80
2022/04/20 05:08:12;;;;;;;6.00;3.63;;;;;;;6.28;90.02;101297.88;4976123;28;20049;-81
2022/04/20 05:10:37;;;;;;;9.25;3.80;;;;;;;6.34;89.88;101303.88;4972795;28;20038;-81
2022/04/20 05:13:04;;;;;;;8.50;4.15;;;;;;;6.36;90.54;101306.50;4956967;28;20042;-80
2022/04/20 05:15:30;;;;;;;9.63;3.80;;;;;;;6.39;91.22;101306.34;4955530;29;20030;-79
2022/04/20 05:17:55;;;;;;;6.82;4.50;;;;;;;6.41;90.56;101299.88;4964166;28;20024;-80
2022/04/20 05:20:21;;;;;;;11.73;4.10;;;;;;;6.47;90.60;101308.66;4975529;28;20036;-80
2022/04/20 05:22:47;;;;;;;7.40;4.20;;;;;;;6.56;91.00;101313.56;4957422;29;20035;-80
2022/04/20 05:25:13;;;;;;;6.65;4.45;;;;;;;6.59;91.39;101310.69;4965724;28;20054;-81
2022/04/20 05:27:39;;;;;;;12.80;4.32;;;;;;;6.60;91.13;101309.72;4957471;28;20070;-79
2022/04/20 05:30:06;;;;;;;7.20;4.55;;;;;;;6.72;91.08;101317.22;4964406;28;20476;-79
2022/04/20 05:32:31;;;;;;;8.25;4.72;;;;;;;6.87;90.21;101315.47;4964554;29;20407;-81
2022/04/20 05:34:57;;;;;;;16.48;4.13;;;;;;;7.07;90.21;101325.25;4942534;28;20027;-79
2022/04/20 05:42:52;;;;;;;8.02;4.70;;;;;;;7.66;88.38;101319.13;4976071;28;20031;-79
2022/04/20 05:45:18;;;;;;;8.13;5.07;;;;;;;7.82;87.59;101314.50;4960770;29;20475;-79
2022/04/20 05:47:43;;;;;;;11.48;4.88;;;;;;;7.97;87.14;101326.34;4975386;28;20098;-81
2022/04/20 05:50:09;;;;;;;8.80;4.85;;;;;;;8.29;85.38;101313.44;4969652;28;20033;-80
2022/04/20 05:52:35;;;;;;;6.65;4.97;;;;;;;8.37;85.08;101309.34;4966808;28;20291;-78
2022/04/20 05:55:00;;;;;;;13.95;4.57;;;;;;;8.56;84.92;101320.91;4953924;28;20066;-77
2022/04/20 05:57:26;;;;;;;8.77;4.72;;;;;;;8.97;81.94;101320.09;4948809;28;20450;-77
2022/04/20 05:59:52;;;;;;;9.20;4.78;;;;;;;9.04;80.71;101320.56;4969043;28;20035;-77
2022/04/20 06:02:17;;;;;;;6.68;4.32;;;;;;;9.28;80.35;101315.38;4945538;29;20387;-78
2022/04/20 06:04:42;;;;;;;8.18;4.93;;;;;;;9.32;81.71;101313.28;4964510;28;20039;-77
2022/04/20 06:07:08;;;;;;;15.05;5.00;;;;;;;9.57;81.22;101316.16;4945087;28;20035;-77
2022/04/20 06:09:33;;;;;;;9.27;4.65;;;;;;;9.75;78.92;101318.59;4952004;29;20039;-78
2022/04/20 06:11:59;;;;;;;13.07;5.57;;;;;;;9.88;80.07;101313.16;4963496;28;20050;-79
2022/04/20 06:14:24;;;;;;;6.45;4.50;;;;;;;10.07;77.12;101312.78;4974940;28;20046;-79
2022/04/20 06:16:50;;;;;;;10.95;4.85;;;;;;;10.22;76.07;101319.91;4974821;28;20043;-79
2022/04/20 06:19:16;;;;;;;11.35;5.50;;;;;;;10.25;74.93;101305.13;4974358;28;20046;-81
2022/04/20 06:21:42;;;;;;;12.52;5.60;;;;;;;10.54;74.68;101315.88;4965247;29;20450;-81
2022/04/20 06:24:07;;;;;;;19.65;5.63;;;;;;;11.04;68.26;101316.81;4969525;28;20046;-81
2022/04/20 06:26:32;;;;;;;12.20;5.20;;;;;;;11.08;70.38;101322.94;4977337;28;20051;-81
2022/04/20 06:28:58;;;;;;;13.55;5.63;;;;;;;11.09;67.81;101320.09;4957381;28;20035;-80
2022/04/20 06:31:23;;;;;;;10.38;5.18;;;;;;;11.50;66.81;101321.59;4979172;28;20042;-80
2022/04/20 06:33:49;;;;;;;10.80;5.43;;;;;;;11.50;67.32;101324.34;4984395;28;20082;-80
2022/04/20 06:36:14;;;;;;;17.10;5.47;;;;;;;11.55;65.74;101324.00;4974325;28;20090;-82
2022/04/20 06:38:40;;;;;;;13.52;6.00;;;;;;;11.65;65.19;101318.69;4978685;28;20054;-80
2022/04/20 06:41:05;;;;;;;18.30;5.97;;;;;;;11.74;65.00;101320.72;4959734;28;20039;-80
2022/04/20 06:43:32;;;;;;;16.92;6.88;;;;;;;11.71;65.72;101315.47;4944067;28;20776;-80
2022/04/20 06:45:57;;;;;;;15.25;6.35;;;;;;;12.00;64.20;101312.38;4962076;28;20054;-79
2022/04/20 06:48:23;;;;;;;15.63;6.38;;;;;;;12.29;64.29;101318.31;4971940;28;20419;-78
2022/04/20 06:50:50;;;;;;;14.75;6.80;;;;;;;12.29;64.59;101327.44;4966887;28;20031;-78
2022/04/20 06:58:44;;;;;;;37.55;8.70;;;;;;;12.76;61.56;101321.03;4976770;28;20522;-80
2022/04/20 07:01:09;;;;;;;22.13;7.28;;;;;;;12.93;61.03;101322.38;4980868;28;20031;-79
2022/04/20 07:03:36;;;;;;;14.50;7.30;;;;;;;12.87;61.44;101323.75;4982177;28;20039;-79
2022/04/20 07:06:03;;;;;;;26.05;8.25;;;;;;;13.32;60.87;101322.84;4967192;28;20039;-80
2022/04/20 07:08:29;;;;;;;18.23;8.27;;;;;;;13.32;58.65;101321.00;5003598;28;20197;-79
2022/04/20 07:10:55;;;;;;;22.35;9.38;;;;;;;13.69;57.84;101317.00;4973829;28;20094;-79
2022/04/20 07:13:20;;;;;;;29.48;8.40;;;;;;;13.47;57.04;101315.22;4974448;28;20081;-79
2022/04/20 07:15:46;;;;;;;23.92;8.32;;;;;;;13.41;57.00;101323.00;4994832;28;20039;-80
2022/04/20 07:18:12;;;;;;;21.73;7.72;;;;;;;13.85;57.18;101303.69;4980886;28;20110;-81
2022/04/20 07:20:38;;;;;;;29.27;9.95;;;;;;;14.22;56.54;101319.78;4966606;28;20038;-81
2022/04/20 07:23:04;;;;;;;20.55;10.32;;;;;;;14.29;55.46;101318.22;4972445;28;20023;-80
2022/04/20 07:25:30;;;;;;;19.92;7.78;;;;;;;14.56;55.49;101318.69;4970131;28;20102;-80
2022/04/20 07:27:56;;;;;;;33.53;9.43;;;;;;;14.77;53.29;101327.81;4944651;28;20070;-80
2022/04/20 07:30:22;;;;;;;22.83;9.18;;;;;;;14.56;53.92;101326.97;4945635;28;20130;-81
2022/04/20 07:32:48;;;;;;;30.65;9.55;;;;;;;15.33;52.20;101323.72;4956102;28;20041;-80
2022/04/20 07:35:14;;;;;;;24.92;8.90;;;;;;;15.51;50.83;101329.44;4968198;28;20072;-80
2022/04/20 07:37:40;;;;;;;39.92;8.60;;;;;;;15.72;50.36;101331.19;4959789;28;20045;-81
2022/04/20 07:40:06;;;;;;;28.42;8.88;;;;;;;15.29;51.01;101327.75;4966328;28;20426;-80
2022/04/20 07:42:32;;;;;;;38.72;9.95;;;;;;;15.09;52.57;101339.75;4995517;28;20038;-80
2022/04/20 07:44:59;;;;;;;21.42;9.00;;;;;;;16.00;49.38;101337.78;4980569;28;20041;-80
2022/04/20 07:47:25;;;;;;;20.20;8.38;;;;;;;16.44;47.59;101338.19;4965465;28;20038;-80
2022/04/20 07:52:40;;;;;;;22.95;8.82;;;;;;;15.74;51.10;101329.16;4981840;28;20046;-80
2022/04/20 07:55:14;;;;;;;23.77;8.85;;;;;;;15.59;50.54;101332.34;4970979;28;20031;-80
2022/04/20 07:57:42;;;;;;;26.75;7.82;;;;;;;16.16;47.31;101332.53;4972396;28;20038;-80
2022/04/20 08:00:10;;;;;;;25.52;8.82;;;;;;;16.17;49.86;101333.44;4953152;28;20041;-80
2022/04/20 08:02:37;;;;;;;22.65;8.52;;;;;;;16.14;47.59;101337.34;4941834;28;20058;-80
2022/04/20 08:05:02;;;;;;;17.23;8.43;;;;;;;16.05;48.79;101338.19;4942663;28;20035;-80
2022/04/20 08:07:28;;;;;;;29.73;9.73;;;;;;;16.59;46.41;101335.81;4937493;28;20499;-80
2022/04/20 08:09:54;;;;;;;31.08;8.80;;;;;;;16.27;47.26;101334.28;4944055;28;20039;-79
2022/04/20 08:12:20;;;;;;;29.90;8.02;;;;;;;16.77;45.35;101335.06;4952762;28;20084;-80
2022/04/20 08:14:46;;;;;;;26.08;8.70;;;;;;;16.85;46.31;101338.84;4939884;28;20039;-80
2022/04/20 08:17:11;;;;;;;19.00;9.02;;;;;;;16.24;46.66;101342.88;4960314;28;20089;-80
2022/04/20 08:19:37;;;;;;;22.08;8.80;;;;;;;16.43;46.70;101341.09;4973241;28;20042;-80
2022/04/20 08:22:04;;;;;;;34.75;9.02;;;;;;;17.76;43.74;101343.63;4973138;28;20399;-80
2022/04/20 08:24:29;;;;;;;27.27;8.55;;;;;;;17.78;43.89;101346.25;4986258;28;20100;-80
2022/04/20 08:26:55;;;;;;;32.25;8.75;;;;;;;17.26;44.12;101338.53;4978809;28;20101;-80
2022/04/20 08:29:20;;;;;;;21.92;9.20;;;;;;;17.02;46.11;101342.72;4963376;28;20034;-80
2022/04/20 08:31:46;;;;;;;23.25;9.18;;;;;;;17.09;43.68;101351.28;4963611;28;20039;-80
2022/04/20 08:34:12;;;;;;;25.00;9.32;;;;;;;18.08;40.88;101341.38;4949670;28;20085;-80
2022/04/20 08:36:37;;;;;;;28.58;8.90;;;;;;;18.13;41.87;101339.84;4964389;28;20054;-80
2022/04/20 08:39:03;;;;;;;22.48;9.45;;;;;;;17.86;43.15;101348.22;4975882;28;20038;-80
2022/04/20 08:41:29;;;;;;;21.08;9.23;;;;;;;18.78;40.05;101344.19;4966932;28;20031;-80
2022/04/20 08:43:56;;;;;;;21.75;8.68;;;;;;;18.32;40.13;101341.59;4970619;28;20046;-80
2022/04/20 08:46:23;;;;;;;23.75;10.05;;;;;;;18.87;39.40;101345.13;4963078;28;20121;-80
2022/04/20 08:48:50;;;;;;;19.40;8.50;;;;;;;18.36;39.68;101345.78;4978193;28;20045;-80
2022/04/20 08:51:17;;;;;;;29.65;9.05;;;;;;;18.22;42.49;101338.03;4975479;28;20050;-80
2022/04/20 08:53:42;;;;;;;25.58;9.07;;;;;;;17.54;42.28;101335.75;4950971;28;20061;-80
2022/04/20 08:58:53;;;;;;;25.23;9.30;;;;;;;18.28;42.61;101336.50;4966048;28;20129;-80
2022/04/20 09:01:19;;;;;;;21.80;9.68;;;;;;;17.82;40.02;101331.91;4962713;28;20058;-80
2022/04/20 09:03:48;;;;;;;25.80;9.23;;;;;;;19.10;39.25;101328.78;4957527;28;20042;-80
2022/04/20 09:06:15;;;;;;;30.67;9.52;;;;;;;18.27;40.28;101334.78;4978869;28;20442;-80
2022/04/20 09:08:41;;;;;;;38.53;10.32;;;;;;;18.22;40.22;101334.38;4958584;28;20508;-80
2022/04/20 09:11:07;;;;;;;41.80;10.32;;;;;;;18.18;39.28;101326.41;4986473;28;20061;-80
2022/04/20 09:13:38;;;;;;;32.55;10.35;;;;;;;18.79;39.78;101333.94;4960971;28;20714;-80
2022/04/20 09:16:08;;;;;;;18.50;8.18;;;;;;;18.87;37.07;101329.38;4976106;28;20026;-80
2022/04/20 09:18:34;;;;;;;24.02;8.93;;;;;;;18.67;37.83;101328.66;4960536;28;20360;-81
2022/04/20 09:21:11;;;;;;;20.50;7.28;;;;;;;19.78;34.72;101326.97;4959629;28;20031;-80
2022/04/20 09:23:37;;;;;;;13.88;6.70;;;;;;;19.27;34.87;101324.19;4983483;28;20034;-80
2022/04/20 09:26:08;;;;;;;26.35;7.32;;;;;;;19.29;35.43;101328.50;4966202;28;20077;-80
2022/04/20 09:28:36;;;;;;;34.55;7.30;;;;;;;18.64;38.02;101328.97;4959730;28;20039;-79
2022/04/20 09:31:03;;;;;;;18.33;7.00;;;;;;;18.35;37.58;101327.41;4963673;28;20035;-80
2022/04/20 09:33:42;;;;;;;18.13;7.53;;;;;;;19.12;35.42;101311.94;4959116;28;20494;-81
2022/04/20 09:36:08;;;;;;;22.67;7.45;;;;;;;19.77;35.52;101319.66;4968057;28;20038;-81
2022/04/20 09:38:37;;;;;;;20.45;8.27;;;;;;;18.49;36.99;101311.22;4948113;28;20498;-80
2022/04/20 09:41:09;;;;;;;25.55;8.75;;;;;;;18.94;38.25;101321.25;4963073;28;20071;-80
2022/04/20 09:43:36;;;;;;;20.88;7.72;;;;;;;18.77;37.76;101303.59;4947345;28;20042;-80
2022/04/20 09:49:04;;;;;;;12.95;6.97;;;;;;;19.94;36.19;101290.88;4978467;28;20031;-80
2022/04/20 09:51:36;;;;;;;19.50;6.22;;;;;;;18.46;36.13;101306.88;4994236;28;20030;-79
2022/04/20 09:54:02;;;;;;;16.00;5.95;;;;;;;19.22;35.21;101298.84;4998955;28;20098;-79
2022/04/20 09:56:27;;;;;;;18.85;7.38;;;;;;;18.07;37.58;101311.91;4941288;28;20073;-79
2022/04/20 09:59:01;;;;;;;19.45;8.00;;;;;;;17.77;39.37;101300.16;4985931;28;20070;-80
2022/04/20 10:01:35;;;;;;;11.25;5.80;;;;;;;18.53;37.73;101310.72;4990665;28;20159;-79
2022/04/20 10:04:05;;;;;;;11.73;6.10;;;;;;;19.49;36.44;101300.47;4958285;28;20027;-79
2022/04/20 10:06:31;;;;;;;10.73;5.65;;;;;;;18.92;35.27;101299.22;4959734;28;20127;-80
2022/04/20 10:08:58;;;;;;;12.68;5.80;;;;;;;18.58;35.46;101299.16;4967814;28;20109;-79
2022/04/20 10:11:25;;;;;;;18.00;6.05;;;;;;;19.05;35.70;101286.78;4957299;28;20074;-83
2022/04/20 10:16:49;;;;;;;13.52;5.55;;;;;;;19.93;35.67;101272.44;4982275;28;20083;-83
2022/04/20 10:19:28;;;;;;;16.42;5.60;;;;;;;19.18;36.79;101283.53;4963807;28;20027;-82
2022/04/20 10:21:55;;;;;;;12.75;5.38;;;;;;;18.44;38.58;101260.91;4958358;28;20031;-83
2022/04/20 10:24:28;;;;;;;8.05;4.35;;;;;;;18.36;38.79;101273.72;4995775;28;20035;-83
2022/04/20 10:26:54;;;;;;;;;;;;;;;18.94;35.67;101270.41;4974726;28;20065;-83
2022/04/20 10:29:30;;;;;;;10.38;4.90;;;;;;;18.84;36.03;101270.53;4976163;28;19960;-83
2022/04/20 10:32:07;;;;;;;20.63;6.68;;;;;;;18.29;36.88;101268.97;4978965;28;20034;-82
2022/04/20 10:34:33;;;;;;;21.25;5.22;;;;;;;18.34;39.78;101261.88;4950256;28;20046;-83
2022/04/20 10:37:01;;;;;;;21.90;5.90;;;;;;;17.97;39.01;101263.00;4962887;28;20023;-83
2022/04/20 10:39:33;;;;;;;12.90;4.75;;;;;;;18.42;37.73;101272.16;4965974;28;20065;-83
2022/04/20 10:42:17;;;;;;;34.83;5.32;;;;;;;18.89;37.72;101268.16;4966534;28;20478;-83
2022/04/20 10:44:57;;;;;;;14.05;4.60;;;;;;;19.30;36.20;101265.53;4989799;28;20030;-84
2022/04/20 10:47:23;;;;;;;8.60;4.20;;;;;;;19.23;36.29;101250.56;4958064;28;20066;-83
2022/04/20 10:49:52;;;;;;;44.22;6.85;;;;;;;18.77;38.13;101261.09;4954888;28;20030;-83
2022/04/20 10:52:29;;;;;;;18.20;5.78;;;;;;;18.02;38.18;101256.97;4961318;28;20031;-83
2022/04/20 10:54:56;;;;;;;12.70;5.00;;;;;;;18.35;39.17;101251.69;4988093;28;20027;-83
2022/04/20 10:57:35;;;;;;;22.75;5.53;;;;;;;18.59;38.52;101250.09;4944229;28;20053;-84
2022/04/20 11:00:16;;;;;;;39.17;6.00;;;;;;;18.55;37.43;101253.19;4983783;28;20042;-81
2022/04/20 11:03:03;;;;;;;70.47;6.72;;;;;;;18.81;37.22;101249.53;4978374;28;20105;-84
2022/04/20 11:05:29;;;;;;;69.63;6.63;;;;;;;19.31;36.93;101249.75;4956204;28;20042;-82
2022/04/20 11:08:05;;;;;;;15.32;5.47;;;;;;;18.23;36.47;101239.97;4977597;28;20034;-82
2022/04/20 11:10:39;;;;;;;19.63;5.30;;;;;;;17.91;38.50;101241.47;4971199;28;20429;-82
2022/04/20 11:19:13;;;;;;;17.65;4.75;;;;;;;17.81;39.30;101237.91;4976589;28;20038;-82
2022/04/20 11:21:53;;;;;;;75.30;6.65;;;;;;;18.36;39.94;101232.13;4979115;28;20038;-84
2022/04/20 11:24:29;;;;;;;39.92;5.00;;;;;;;18.42;39.68;101216.72;4962327;28;20090;-82
2022/04/20 11:26:55;;;;;;;17.60;5.45;;;;;;;18.71;37.59;101238.53;4962774;28;20030;-83
2022/04/20 11:29:22;;;;;;;8.40;5.10;;;;;;;18.54;39.68;101225.63;4969138;28;20117;-81
2022/04/20 11:31:51;;;;;;;19.30;6.03;;;;;;;18.31;39.89;101233.63;4975988;28;20084;-83
2022/04/20 11:34:20;;;;;;;108.97;7.72;;;;;;;18.78;38.78;101230.44;4963634;28;20503;-82
2022/04/20 11:36:47;;;;;;;16.08;5.32;;;;;;;18.49;39.65;101220.56;4955944;28;20101;-82
2022/04/20 11:39:15;;;;;;;17.52;5.85;;;;;;;18.02;39.33;101223.72;4965498;28;20039;-81
2022/04/20 11:41:45;;;;;;;12.07;5.55;;;;;;;18.23;40.70;101219.72;4979885;28;20129;-82
2022/04/20 11:44:26;;;;;;;14.10;5.10;;;;;;;18.86;38.89;101213.84;4977035;28;20041;-82
2022/04/20 11:46:56;;;;;;;32.38;5.70;;;;;;;18.59;40.35;101223.22;4988652;28;20038;-82
2022/04/20 11:49:28;;;;;;;65.68;6.57;;;;;;;18.21;41.90;101203.22;4971966;28;20043;-82
2022/04/20 11:52:00;;;;;;;16.40;5.35;;;;;;;17.90;40.42;101212.00;4955282;28;20023;-82
2022/04/20 11:54:30;;;;;;;13.97;5.43;;;;;;;17.93;40.27;101194.22;4977584;28;20121;-82